sensor_id;sensor_type;location;lat;lon;timestamp;P1;durP1;ratioP1;P2;durP2;ratioP2
74245;SDS011;62601;51.044;13.788;2022-10-15T00:01:59;11.90;;;9.40;;
74245;SDS011;62601;51.044;13.788;2022-10-15T00:04:20;9.43;;;8.13;;
74245;SDS011;62601;51.044;13.788;2022-10-15T00:06:43;10.30;;;8.07;;
74245;SDS011;62601;51.044;13.788;2022-10-15T00:09:05;9.40;;;8.40;;
74245;SDS011;62601;51.044;13.788;2022-10-15T00:11:27;9.17;;;8.27;;
74245;SDS011;62601;51.044;13.788;2022-10-15T00:13:49;10.67;;;8.77;;
74245;SDS011;62601;51.044;13.788;2022-10-15T00:16:15;10.90;;;9.07;;
74245;SDS011;62601;51.044;13.788;2022-10-15T00:18:36;12.17;;;9.27;;
74245;SDS011;62601;51.044;13.788;2022-10-15T00:20:56;9.80;;;8.43;;
74245;SDS011;62601;51.044;13.788;2022-10-15T00:23:18;10.20;;;9.10;;
74245;SDS011;62601;51.044;13.788;2022-10-15T00:25:39;10.37;;;8.63;;
74245;SDS011;62601;51.044;13.788;2022-10-15T00:28:00;12.20;;;9.43;;
74245;SDS011;62601;51.044;13.788;2022-10-15T00:30:21;11.93;;;9.17;;
74245;SDS011;62601;51.044;13.788;2022-10-15T00:32:43;10.20;;;9.00;;
74245;SDS011;62601;51.044;13.788;2022-10-15T00:35:04;11.00;;;9.53;;
74245;SDS011;62601;51.044;13.788;2022-10-15T00:37:24;11.37;;;9.60;;
74245;SDS011;62601;51.044;13.788;2022-10-15T00:39:44;11.83;;;9.90;;
74245;SDS011;62601;51.044;13.788;2022-10-15T00:42:05;11.10;;;9.00;;
74245;SDS011;62601;51.044;13.788;2022-10-15T00:46:52;13.60;;;10.67;;
74245;SDS011;62601;51.044;13.788;2022-10-15T00:49:23;11.63;;;10.17;;
74245;SDS011;62601;51.044;13.788;2022-10-15T00:51:51;13.13;;;11.03;;
74245;SDS011;62601;51.044;13.788;2022-10-15T00:54:13;11.50;;;10.13;;
74245;SDS011;62601;51.044;13.788;2022-10-15T00:56:38;11.97;;;10.07;;
74245;SDS011;62601;51.044;13.788;2022-10-15T00:59:01;14.63;;;10.40;;
74245;SDS011;62601;51.044;13.788;2022-10-15T01:01:26;12.40;;;10.70;;
74245;SDS011;62601;51.044;13.788;2022-10-15T01:03:47;14.00;;;10.37;;
74245;SDS011;62601;51.044;13.788;2022-10-15T01:06:09;11.57;;;10.30;;
74245;SDS011;62601;51.044;13.788;2022-10-15T01:08:30;13.30;;;11.10;;
74245;SDS011;62601;51.044;13.788;2022-10-15T01:13:41;15.03;;;10.73;;
74245;SDS011;62601;51.044;13.788;2022-10-15T01:16:18;13.93;;;10.93;;
74245;SDS011;62601;51.044;13.788;2022-10-15T01:18:40;12.80;;;10.77;;
74245;SDS011;62601;51.044;13.788;2022-10-15T01:26:26;11.57;;;10.13;;
74245;SDS011;62601;51.044;13.788;2022-10-15T01:31:38;13.77;;;11.07;;
74245;SDS011;62601;51.044;13.788;2022-10-15T01:36:48;15.60;;;10.63;;
74245;SDS011;62601;51.044;13.788;2022-10-15T01:39:31;13.17;;;10.80;;
74245;SDS011;62601;51.044;13.788;2022-10-15T01:41:58;12.77;;;10.63;;
74245;SDS011;62601;51.044;13.788;2022-10-15T01:44:23;13.20;;;10.10;;
74245;SDS011;62601;51.044;13.788;2022-10-15T01:46:49;11.77;;;10.67;;
74245;SDS011;62601;51.044;13.788;2022-10-15T01:49:14;12.30;;;10.80;;
74245;SDS011;62601;51.044;13.788;2022-10-15T01:51:36;13.27;;;10.40;;
74245;SDS011;62601;51.044;13.788;2022-10-15T01:53:58;12.37;;;11.07;;
74245;SDS011;62601;51.044;13.788;2022-10-15T01:56:20;13.90;;;10.43;;
74245;SDS011;62601;51.044;13.788;2022-10-15T01:58:43;12.37;;;10.97;;
74245;SDS011;62601;51.044;13.788;2022-10-15T02:01:05;12.17;;;10.87;;
74245;SDS011;62601;51.044;13.788;2022-10-15T02:03:26;14.67;;;11.57;;
74245;SDS011;62601;51.044;13.788;2022-10-15T02:05:54;11.60;;;10.47;;
74245;SDS011;62601;51.044;13.788;2022-10-15T02:10:59;10.93;;;9.67;;
74245;SDS011;62601;51.044;13.788;2022-10-15T02:21:20;12.20;;;10.87;;
74245;SDS011;62601;51.044;13.788;2022-10-15T02:23:52;13.80;;;10.83;;
74245;SDS011;62601;51.044;13.788;2022-10-15T02:26:14;11.90;;;10.70;;
74245;SDS011;62601;51.044;13.788;2022-10-15T02:28:35;12.03;;;10.70;;
74245;SDS011;62601;51.044;13.788;2022-10-15T02:30:56;13.27;;;11.87;;
74245;SDS011;62601;51.044;13.788;2022-10-15T02:33:19;15.57;;;12.70;;
74245;SDS011;62601;51.044;13.788;2022-10-15T02:35:41;13.70;;;11.80;;
74245;SDS011;62601;51.044;13.788;2022-10-15T02:38:03;16.60;;;12.73;;
74245;SDS011;62601;51.044;13.788;2022-10-15T02:40:26;13.47;;;12.17;;
74245;SDS011;62601;51.044;13.788;2022-10-15T02:42:52;13.73;;;11.83;;
74245;SDS011;62601;51.044;13.788;2022-10-15T02:45:13;15.53;;;12.00;;
74245;SDS011;62601;51.044;13.788;2022-10-15T02:47:35;14.10;;;12.60;;
74245;SDS011;62601;51.044;13.788;2022-10-15T02:49:57;21.60;;;12.40;;
74245;SDS011;62601;51.044;13.788;2022-10-15T02:52:18;15.60;;;12.33;;
74245;SDS011;62601;51.044;13.788;2022-10-15T02:54:39;12.37;;;11.17;;
74245;SDS011;62601;51.044;13.788;2022-10-15T02:57:01;13.60;;;12.20;;
74245;SDS011;62601;51.044;13.788;2022-10-15T02:59:22;13.00;;;11.67;;
74245;SDS011;62601;51.044;13.788;2022-10-15T03:01:44;13.73;;;10.80;;
74245;SDS011;62601;51.044;13.788;2022-10-15T03:04:08;13.00;;;11.70;;
74245;SDS011;62601;51.044;13.788;2022-10-15T03:06:30;21.80;;;12.40;;
74245;SDS011;62601;51.044;13.788;2022-10-15T03:08:51;12.83;;;11.10;;
74245;SDS011;62601;51.044;13.788;2022-10-15T03:11:11;14.90;;;12.10;;
74245;SDS011;62601;51.044;13.788;2022-10-15T03:13:36;13.03;;;11.20;;
74245;SDS011;62601;51.044;13.788;2022-10-15T03:15:58;13.97;;;11.53;;
74245;SDS011;62601;51.044;13.788;2022-10-15T03:18:19;13.07;;;11.67;;
74245;SDS011;62601;51.044;13.788;2022-10-15T03:20:41;16.03;;;11.53;;
74245;SDS011;62601;51.044;13.788;2022-10-15T03:23:02;12.40;;;11.20;;
74245;SDS011;62601;51.044;13.788;2022-10-15T03:25:24;12.53;;;11.20;;
74245;SDS011;62601;51.044;13.788;2022-10-15T03:27:45;13.20;;;11.33;;
74245;SDS011;62601;51.044;13.788;2022-10-15T03:30:06;13.60;;;12.07;;
74245;SDS011;62601;51.044;13.788;2022-10-15T03:32:28;13.90;;;12.03;;
74245;SDS011;62601;51.044;13.788;2022-10-15T03:34:49;16.13;;;13.00;;
74245;SDS011;62601;51.044;13.788;2022-10-15T03:37:09;12.97;;;11.53;;
74245;SDS011;62601;51.044;13.788;2022-10-15T03:39:31;15.67;;;12.33;;
74245;SDS011;62601;51.044;13.788;2022-10-15T03:41:54;12.73;;;11.40;;
74245;SDS011;62601;51.044;13.788;2022-10-15T03:44:14;13.63;;;11.80;;
74245;SDS011;62601;51.044;13.788;2022-10-15T03:46:34;13.87;;;12.37;;
74245;SDS011;62601;51.044;13.788;2022-10-15T03:48:54;15.90;;;13.40;;
74245;SDS011;62601;51.044;13.788;2022-10-15T03:51:14;13.30;;;12.00;;
74245;SDS011;62601;51.044;13.788;2022-10-15T03:53:34;13.60;;;11.87;;
74245;SDS011;62601;51.044;13.788;2022-10-15T03:56:01;13.13;;;11.77;;
74245;SDS011;62601;51.044;13.788;2022-10-15T03:58:22;16.83;;;12.60;;
74245;SDS011;62601;51.044;13.788;2022-10-15T04:00:43;16.67;;;12.63;;
74245;SDS011;62601;51.044;13.788;2022-10-15T04:03:05;15.23;;;12.60;;
74245;SDS011;62601;51.044;13.788;2022-10-15T04:05:25;13.90;;;12.33;;
74245;SDS011;62601;51.044;13.788;2022-10-15T04:07:45;13.77;;;12.17;;
74245;SDS011;62601;51.044;13.788;2022-10-15T04:10:07;15.00;;;13.17;;
74245;SDS011;62601;51.044;13.788;2022-10-15T04:12:27;13.63;;;11.40;;
74245;SDS011;62601;51.044;13.788;2022-10-15T04:14:47;13.93;;;11.70;;
74245;SDS011;62601;51.044;13.788;2022-10-15T04:17:07;12.13;;;10.93;;
74245;SDS011;62601;51.044;13.788;2022-10-15T04:19:29;13.70;;;11.40;;
74245;SDS011;62601;51.044;13.788;2022-10-15T04:21:50;13.30;;;11.90;;
74245;SDS011;62601;51.044;13.788;2022-10-15T04:24:11;14.50;;;12.40;;
74245;SDS011;62601;51.044;13.788;2022-10-15T04:26:31;13.70;;;12.10;;
74245;SDS011;62601;51.044;13.788;2022-10-15T04:28:51;12.73;;;11.30;;
74245;SDS011;62601;51.044;13.788;2022-10-15T04:31:11;15.70;;;12.43;;
74245;SDS011;62601;51.044;13.788;2022-10-15T04:33:31;11.90;;;10.73;;
74245;SDS011;62601;51.044;13.788;2022-10-15T04:35:58;14.50;;;11.73;;
74245;SDS011;62601;51.044;13.788;2022-10-15T04:38:18;13.07;;;11.67;;
74245;SDS011;62601;51.044;13.788;2022-10-15T04:40:38;13.63;;;12.23;;
74245;SDS011;62601;51.044;13.788;2022-10-15T04:42:58;15.27;;;11.93;;
74245;SDS011;62601;51.044;13.788;2022-10-15T04:45:19;15.80;;;12.47;;
74245;SDS011;62601;51.044;13.788;2022-10-15T04:47:39;13.03;;;11.63;;
74245;SDS011;62601;51.044;13.788;2022-10-15T04:49:59;14.80;;;13.20;;
74245;SDS011;62601;51.044;13.788;2022-10-15T04:52:19;14.10;;;12.13;;
74245;SDS011;62601;51.044;13.788;2022-10-15T04:54:39;13.30;;;11.70;;
74245;SDS011;62601;51.044;13.788;2022-10-15T04:57:01;13.63;;;12.20;;
74245;SDS011;62601;51.044;13.788;2022-10-15T04:59:22;14.67;;;12.90;;
74245;SDS011;62601;51.044;13.788;2022-10-15T05:01:43;13.60;;;11.40;;
74245;SDS011;62601;51.044;13.788;2022-10-15T05:04:04;13.40;;;11.80;;
74245;SDS011;62601;51.044;13.788;2022-10-15T05:06:24;14.30;;;12.40;;
74245;SDS011;62601;51.044;13.788;2022-10-15T05:08:46;13.30;;;11.90;;
74245;SDS011;62601;51.044;13.788;2022-10-15T05:11:09;14.80;;;12.37;;
74245;SDS011;62601;51.044;13.788;2022-10-15T05:13:31;14.43;;;12.13;;
74245;SDS011;62601;51.044;13.788;2022-10-15T05:15:54;13.37;;;11.93;;
74245;SDS011;62601;51.044;13.788;2022-10-15T05:18:16;12.77;;;11.47;;
74245;SDS011;62601;51.044;13.788;2022-10-15T05:20:37;14.23;;;12.77;;
74245;SDS011;62601;51.044;13.788;2022-10-15T05:22:58;13.33;;;11.80;;
74245;SDS011;62601;51.044;13.788;2022-10-15T05:25:20;14.77;;;13.27;;
74245;SDS011;62601;51.044;13.788;2022-10-15T05:27:40;14.33;;;12.80;;
74245;SDS011;62601;51.044;13.788;2022-10-15T05:30:02;14.30;;;11.83;;
74245;SDS011;62601;51.044;13.788;2022-10-15T05:32:24;12.93;;;11.33;;
74245;SDS011;62601;51.044;13.788;2022-10-15T05:34:46;14.27;;;11.93;;
74245;SDS011;62601;51.044;13.788;2022-10-15T05:37:07;15.50;;;11.50;;
74245;SDS011;62601;51.044;13.788;2022-10-15T05:39:28;14.27;;;11.30;;
74245;SDS011;62601;51.044;13.788;2022-10-15T05:41:48;16.80;;;12.57;;
74245;SDS011;62601;51.044;13.788;2022-10-15T05:44:08;13.50;;;11.90;;
74245;SDS011;62601;51.044;13.788;2022-10-15T05:46:28;11.57;;;10.37;;
74245;SDS011;62601;51.044;13.788;2022-10-15T05:48:49;14.00;;;11.47;;
74245;SDS011;62601;51.044;13.788;2022-10-15T05:51:11;13.30;;;12.00;;
74245;SDS011;62601;51.044;13.788;2022-10-15T05:53:33;13.10;;;11.20;;
74245;SDS011;62601;51.044;13.788;2022-10-15T05:55:57;12.13;;;10.93;;
74245;SDS011;62601;51.044;13.788;2022-10-15T05:58:19;12.10;;;10.80;;
74245;SDS011;62601;51.044;13.788;2022-10-15T06:00:39;11.93;;;10.50;;
74245;SDS011;62601;51.044;13.788;2022-10-15T06:02:59;15.70;;;10.57;;
74245;SDS011;62601;51.044;13.788;2022-10-15T06:05:20;11.80;;;10.60;;
74245;SDS011;62601;51.044;13.788;2022-10-15T06:07:42;13.60;;;11.70;;
74245;SDS011;62601;51.044;13.788;2022-10-15T06:10:03;12.13;;;10.83;;
74245;SDS011;62601;51.044;13.788;2022-10-15T06:12:24;12.23;;;11.03;;
74245;SDS011;62601;51.044;13.788;2022-10-15T06:14:45;11.40;;;10.30;;
74245;SDS011;62601;51.044;13.788;2022-10-15T06:17:05;12.10;;;11.00;;
74245;SDS011;62601;51.044;13.788;2022-10-15T06:19:27;12.57;;;11.27;;
74245;SDS011;62601;51.044;13.788;2022-10-15T06:21:48;10.80;;;9.20;;
74245;SDS011;62601;51.044;13.788;2022-10-15T06:24:09;11.47;;;10.27;;
74245;SDS011;62601;51.044;13.788;2022-10-15T06:26:29;11.77;;;10.60;;
74245;SDS011;62601;51.044;13.788;2022-10-15T06:28:51;10.63;;;9.63;;
74245;SDS011;62601;51.044;13.788;2022-10-15T06:31:12;11.27;;;10.07;;
74245;SDS011;62601;51.044;13.788;2022-10-15T06:33:34;10.33;;;9.43;;
74245;SDS011;62601;51.044;13.788;2022-10-15T06:35:59;9.60;;;8.70;;
74245;SDS011;62601;51.044;13.788;2022-10-15T06:38:29;10.40;;;9.40;;
74245;SDS011;62601;51.044;13.788;2022-10-15T06:40:51;11.17;;;9.90;;
74245;SDS011;62601;51.044;13.788;2022-10-15T06:43:12;10.03;;;8.90;;
74245;SDS011;62601;51.044;13.788;2022-10-15T06:45:35;9.87;;;8.97;;
74245;SDS011;62601;51.044;13.788;2022-10-15T06:48:05;9.90;;;8.90;;
74245;SDS011;62601;51.044;13.788;2022-10-15T06:50:26;10.63;;;9.63;;
74245;SDS011;62601;51.044;13.788;2022-10-15T06:52:48;9.53;;;8.50;;
74245;SDS011;62601;51.044;13.788;2022-10-15T06:55:09;9.00;;;8.10;;
74245;SDS011;62601;51.044;13.788;2022-10-15T06:57:29;8.27;;;7.57;;
74245;SDS011;62601;51.044;13.788;2022-10-15T06:59:51;13.07;;;9.20;;
74245;SDS011;62601;51.044;13.788;2022-10-15T07:02:12;9.77;;;8.07;;
74245;SDS011;62601;51.044;13.788;2022-10-15T07:04:33;8.93;;;6.93;;
74245;SDS011;62601;51.044;13.788;2022-10-15T07:06:53;8.33;;;7.53;;
74245;SDS011;62601;51.044;13.788;2022-10-15T07:09:13;7.90;;;7.10;;
74245;SDS011;62601;51.044;13.788;2022-10-15T07:11:33;7.90;;;7.20;;
74245;SDS011;62601;51.044;13.788;2022-10-15T07:13:55;8.43;;;7.63;;
74245;SDS011;62601;51.044;13.788;2022-10-15T07:16:15;7.60;;;6.90;;
74245;SDS011;62601;51.044;13.788;2022-10-15T07:18:36;7.97;;;7.27;;
74245;SDS011;62601;51.044;13.788;2022-10-15T07:20:57;7.30;;;6.53;;
74245;SDS011;62601;51.044;13.788;2022-10-15T07:23:17;7.63;;;6.83;;
74245;SDS011;62601;51.044;13.788;2022-10-15T07:25:38;6.97;;;6.27;;
74245;SDS011;62601;51.044;13.788;2022-10-15T07:28:00;7.47;;;6.63;;
74245;SDS011;62601;51.044;13.788;2022-10-15T07:30:22;7.20;;;6.50;;
74245;SDS011;62601;51.044;13.788;2022-10-15T07:32:43;6.70;;;6.10;;
74245;SDS011;62601;51.044;13.788;2022-10-15T07:35:03;6.90;;;5.83;;
74245;SDS011;62601;51.044;13.788;2022-10-15T07:37:25;7.03;;;6.00;;
74245;SDS011;62601;51.044;13.788;2022-10-15T07:39:45;6.30;;;5.70;;
74245;SDS011;62601;51.044;13.788;2022-10-15T07:42:06;6.20;;;5.60;;
74245;SDS011;62601;51.044;13.788;2022-10-15T07:44:26;6.20;;;5.60;;
74245;SDS011;62601;51.044;13.788;2022-10-15T07:46:51;8.80;;;5.77;;
74245;SDS011;62601;51.044;13.788;2022-10-15T07:49:12;6.20;;;5.60;;
74245;SDS011;62601;51.044;13.788;2022-10-15T07:51:34;5.37;;;4.87;;
74245;SDS011;62601;51.044;13.788;2022-10-15T07:53:55;5.87;;;4.90;;
74245;SDS011;62601;51.044;13.788;2022-10-15T07:56:15;4.73;;;4.33;;
74245;SDS011;62601;51.044;13.788;2022-10-15T07:58:37;5.53;;;5.03;;
74245;SDS011;62601;51.044;13.788;2022-10-15T08:00:58;5.70;;;5.10;;
74245;SDS011;62601;51.044;13.788;2022-10-15T08:03:19;7.30;;;4.30;;
74245;SDS011;62601;51.044;13.788;2022-10-15T08:05:41;5.10;;;4.60;;
74245;SDS011;62601;51.044;13.788;2022-10-15T08:08:01;5.13;;;4.70;;
74245;SDS011;62601;51.044;13.788;2022-10-15T08:10:22;4.20;;;3.90;;
74245;SDS011;62601;51.044;13.788;2022-10-15T08:12:44;4.97;;;4.27;;
74245;SDS011;62601;51.044;13.788;2022-10-15T08:15:04;3.97;;;3.60;;
74245;SDS011;62601;51.044;13.788;2022-10-15T08:17:28;5.23;;;4.23;;
74245;SDS011;62601;51.044;13.788;2022-10-15T08:19:50;4.23;;;3.87;;
74245;SDS011;62601;51.044;13.788;2022-10-15T08:22:11;4.40;;;4.00;;
74245;SDS011;62601;51.044;13.788;2022-10-15T08:24:32;4.30;;;3.90;;
74245;SDS011;62601;51.044;13.788;2022-10-15T08:26:53;5.37;;;4.83;;
74245;SDS011;62601;51.044;13.788;2022-10-15T08:29:14;4.37;;;4.03;;
74245;SDS011;62601;51.044;13.788;2022-10-15T08:31:35;5.37;;;4.87;;
74245;SDS011;62601;51.044;13.788;2022-10-15T08:33:59;4.83;;;4.43;;
74245;SDS011;62601;51.044;13.788;2022-10-15T08:36:19;4.70;;;4.30;;
74245;SDS011;62601;51.044;13.788;2022-10-15T08:38:40;5.27;;;4.77;;
74245;SDS011;62601;51.044;13.788;2022-10-15T08:41:01;5.23;;;4.70;;
74245;SDS011;62601;51.044;13.788;2022-10-15T08:43:29;5.07;;;4.57;;
74245;SDS011;62601;51.044;13.788;2022-10-15T08:45:52;5.23;;;4.60;;
74245;SDS011;62601;51.044;13.788;2022-10-15T08:48:18;5.00;;;4.60;;
74245;SDS011;62601;51.044;13.788;2022-10-15T08:53:19;4.77;;;4.37;;
74245;SDS011;62601;51.044;13.788;2022-10-15T08:55:42;4.90;;;4.50;;
74245;SDS011;62601;51.044;13.788;2022-10-15T08:58:05;4.50;;;4.10;;
74245;SDS011;62601;51.044;13.788;2022-10-15T09:00:41;5.70;;;4.30;;
74245;SDS011;62601;51.044;13.788;2022-10-15T09:03:03;4.43;;;4.03;;
74245;SDS011;62601;51.044;13.788;2022-10-15T09:10:51;3.77;;;3.47;;
74245;SDS011;62601;51.044;13.788;2022-10-15T09:13:28;4.23;;;3.83;;
74245;SDS011;62601;51.044;13.788;2022-10-15T09:16:01;3.50;;;3.20;;
74245;SDS011;62601;51.044;13.788;2022-10-15T09:18:24;3.60;;;3.30;;
74245;SDS011;62601;51.044;13.788;2022-10-15T09:20:46;3.60;;;3.30;;
74245;SDS011;62601;51.044;13.788;2022-10-15T09:23:12;3.60;;;3.27;;
74245;SDS011;62601;51.044;13.788;2022-10-15T09:25:46;3.70;;;3.40;;
74245;SDS011;62601;51.044;13.788;2022-10-15T09:28:09;5.40;;;4.63;;
74245;SDS011;62601;51.044;13.788;2022-10-15T09:30:32;3.80;;;3.50;;
74245;SDS011;62601;51.044;13.788;2022-10-15T09:35:49;4.07;;;3.73;;
74245;SDS011;62601;51.044;13.788;2022-10-15T09:43:27;6.07;;;5.43;;
74245;SDS011;62601;51.044;13.788;2022-10-15T09:45:48;6.10;;;5.00;;
74245;SDS011;62601;51.044;13.788;2022-10-15T09:48:12;4.53;;;4.13;;
74245;SDS011;62601;51.044;13.788;2022-10-15T09:50:37;4.97;;;4.27;;
74245;SDS011;62601;51.044;13.788;2022-10-15T09:57:49;5.53;;;4.90;;
74245;SDS011;62601;51.044;13.788;2022-10-15T10:00:10;5.13;;;4.63;;
74245;SDS011;62601;51.044;13.788;2022-10-15T10:02:31;4.63;;;4.23;;
74245;SDS011;62601;51.044;13.788;2022-10-15T10:04:53;4.13;;;3.73;;
74245;SDS011;62601;51.044;13.788;2022-10-15T10:07:33;4.00;;;3.70;;
74245;SDS011;62601;51.044;13.788;2022-10-15T10:09:56;4.17;;;3.77;;
74245;SDS011;62601;51.044;13.788;2022-10-15T10:12:22;4.13;;;3.80;;
74245;SDS011;62601;51.044;13.788;2022-10-15T10:14:46;4.13;;;3.83;;
74245;SDS011;62601;51.044;13.788;2022-10-15T10:17:21;4.00;;;3.70;;
74245;SDS011;62601;51.044;13.788;2022-10-15T10:19:42;4.00;;;3.70;;
74245;SDS011;62601;51.044;13.788;2022-10-15T10:22:18;4.23;;;3.70;;
74245;SDS011;62601;51.044;13.788;2022-10-15T10:24:40;4.83;;;4.03;;
74245;SDS011;62601;51.044;13.788;2022-10-15T10:27:01;4.07;;;3.77;;
74245;SDS011;62601;51.044;13.788;2022-10-15T10:29:23;4.07;;;3.67;;
74245;SDS011;62601;51.044;13.788;2022-10-15T10:31:51;3.60;;;3.40;;
74245;SDS011;62601;51.044;13.788;2022-10-15T10:34:36;4.40;;;4.10;;
74245;SDS011;62601;51.044;13.788;2022-10-15T10:36:56;4.70;;;4.20;;
74245;SDS011;62601;51.044;13.788;2022-10-15T10:44:21;4.20;;;3.80;;
74245;SDS011;62601;51.044;13.788;2022-10-15T10:46:59;4.33;;;4.00;;
74245;SDS011;62601;51.044;13.788;2022-10-15T10:49:29;3.73;;;3.43;;
74245;SDS011;62601;51.044;13.788;2022-10-15T10:51:50;4.77;;;4.27;;
74245;SDS011;62601;51.044;13.788;2022-10-15T10:54:13;7.70;;;4.60;;
74245;SDS011;62601;51.044;13.788;2022-10-15T10:56:35;4.93;;;4.50;;
74245;SDS011;62601;51.044;13.788;2022-10-15T10:59:09;4.40;;;4.00;;
74245;SDS011;62601;51.044;13.788;2022-10-15T11:01:34;5.87;;;4.00;;
74245;SDS011;62601;51.044;13.788;2022-10-15T11:03:55;3.87;;;3.57;;
74245;SDS011;62601;51.044;13.788;2022-10-15T11:09:16;3.80;;;3.40;;
74245;SDS011;62601;51.044;13.788;2022-10-15T11:14:30;5.73;;;4.30;;
74245;SDS011;62601;51.044;13.788;2022-10-15T11:16:57;6.17;;;3.70;;
74245;SDS011;62601;51.044;13.788;2022-10-15T11:32:19;3.53;;;3.23;;
74245;SDS011;62601;51.044;13.788;2022-10-15T11:41:56;3.70;;;3.40;;
74245;SDS011;62601;51.044;13.788;2022-10-15T11:54:52;3.60;;;3.30;;
74245;SDS011;62601;51.044;13.788;2022-10-15T11:57:18;3.10;;;2.90;;
74245;SDS011;62601;51.044;13.788;2022-10-15T11:59:58;3.17;;;2.97;;
74245;SDS011;62601;51.044;13.788;2022-10-15T12:02:37;3.20;;;2.90;;
74245;SDS011;62601;51.044;13.788;2022-10-15T12:05:58;3.33;;;3.00;;
74245;SDS011;62601;51.044;13.788;2022-10-15T12:07:48;3.30;;;3.00;;
74245;SDS011;62601;51.044;13.788;2022-10-15T12:10:27;3.33;;;3.10;;
74245;SDS011;62601;51.044;13.788;2022-10-15T12:20:17;3.87;;;3.50;;
74245;SDS011;62601;51.044;13.788;2022-10-15T12:22:42;2.87;;;2.60;;
74245;SDS011;62601;51.044;13.788;2022-10-15T12:28:04;3.40;;;2.87;;
74245;SDS011;62601;51.044;13.788;2022-10-15T12:30:33;3.53;;;3.23;;
74245;SDS011;62601;51.044;13.788;2022-10-15T12:32:54;3.80;;;2.90;;
74245;SDS011;62601;51.044;13.788;2022-10-15T12:35:23;6.57;;;3.40;;
74245;SDS011;62601;51.044;13.788;2022-10-15T12:37:47;3.20;;;3.00;;
74245;SDS011;62601;51.044;13.788;2022-10-15T12:42:41;3.00;;;2.80;;
74245;SDS011;62601;51.044;13.788;2022-10-15T12:45:05;3.60;;;3.30;;
74245;SDS011;62601;51.044;13.788;2022-10-15T12:47:54;3.23;;;3.00;;
74245;SDS011;62601;51.044;13.788;2022-10-15T12:50:22;3.77;;;3.47;;
74245;SDS011;62601;51.044;13.788;2022-10-15T12:53:01;3.80;;;3.40;;
74245;SDS011;62601;51.044;13.788;2022-10-15T12:57:59;3.10;;;2.90;;
74245;SDS011;62601;51.044;13.788;2022-10-15T13:00:36;3.80;;;3.10;;
74245;SDS011;62601;51.044;13.788;2022-10-15T13:03:07;3.77;;;3.30;;
74245;SDS011;62601;51.044;13.788;2022-10-15T13:05:30;3.60;;;2.70;;
74245;SDS011;62601;51.044;13.788;2022-10-15T13:07:54;3.00;;;2.80;;
74245;SDS011;62601;51.044;13.788;2022-10-15T13:10:19;3.23;;;3.00;;
74245;SDS011;62601;51.044;13.788;2022-10-15T13:12:41;3.00;;;2.73;;
74245;SDS011;62601;51.044;13.788;2022-10-15T13:15:03;2.90;;;2.67;;
74245;SDS011;62601;51.044;13.788;2022-10-15T13:17:24;3.73;;;3.10;;
74245;SDS011;62601;51.044;13.788;2022-10-15T13:19:46;3.90;;;3.13;;
74245;SDS011;62601;51.044;13.788;2022-10-15T13:22:19;4.03;;;2.50;;
74245;SDS011;62601;51.044;13.788;2022-10-15T13:24:43;5.63;;;2.93;;
74245;SDS011;62601;51.044;13.788;2022-10-15T13:27:29;3.83;;;3.20;;
74245;SDS011;62601;51.044;13.788;2022-10-15T13:30:00;5.00;;;4.50;;
74245;SDS011;62601;51.044;13.788;2022-10-15T13:32:44;5.73;;;4.63;;
74245;SDS011;62601;51.044;13.788;2022-10-15T13:35:28;4.07;;;3.50;;
74245;SDS011;62601;51.044;13.788;2022-10-15T13:37:51;2.97;;;2.67;;
74245;SDS011;62601;51.044;13.788;2022-10-15T13:40:22;2.87;;;2.67;;
74245;SDS011;62601;51.044;13.788;2022-10-15T13:42:56;4.60;;;3.00;;
74245;SDS011;62601;51.044;13.788;2022-10-15T13:45:18;2.40;;;2.20;;
74245;SDS011;62601;51.044;13.788;2022-10-15T13:47:40;2.70;;;2.50;;
74245;SDS011;62601;51.044;13.788;2022-10-15T13:50:21;4.13;;;2.50;;
74245;SDS011;62601;51.044;13.788;2022-10-15T13:52:42;3.00;;;2.70;;
74245;SDS011;62601;51.044;13.788;2022-10-15T13:55:09;2.17;;;2.07;;
74245;SDS011;62601;51.044;13.788;2022-10-15T13:57:30;2.40;;;2.30;;
74245;SDS011;62601;51.044;13.788;2022-10-15T13:59:52;2.70;;;2.50;;
74245;SDS011;62601;51.044;13.788;2022-10-15T14:02:12;2.40;;;2.23;;
74245;SDS011;62601;51.044;13.788;2022-10-15T14:04:34;3.73;;;2.50;;
74245;SDS011;62601;51.044;13.788;2022-10-15T14:06:56;2.60;;;2.40;;
74245;SDS011;62601;51.044;13.788;2022-10-15T14:09:19;3.17;;;2.80;;
74245;SDS011;62601;51.044;13.788;2022-10-15T14:11:41;3.60;;;3.30;;
74245;SDS011;62601;51.044;13.788;2022-10-15T14:14:02;4.17;;;3.77;;
74245;SDS011;62601;51.044;13.788;2022-10-15T14:16:34;4.27;;;3.67;;
74245;SDS011;62601;51.044;13.788;2022-10-15T14:19:08;3.70;;;3.40;;
74245;SDS011;62601;51.044;13.788;2022-10-15T14:21:29;4.60;;;4.20;;
74245;SDS011;62601;51.044;13.788;2022-10-15T14:23:49;4.03;;;3.63;;
74245;SDS011;62601;51.044;13.788;2022-10-15T14:26:12;3.70;;;3.40;;
74245;SDS011;62601;51.044;13.788;2022-10-15T14:28:34;4.20;;;3.37;;
74245;SDS011;62601;51.044;13.788;2022-10-15T14:30:55;4.10;;;3.70;;
74245;SDS011;62601;51.044;13.788;2022-10-15T14:36:21;4.87;;;4.33;;
74245;SDS011;62601;51.044;13.788;2022-10-15T14:38:42;4.20;;;3.90;;
74245;SDS011;62601;51.044;13.788;2022-10-15T14:41:05;4.83;;;4.17;;
74245;SDS011;62601;51.044;13.788;2022-10-15T14:43:33;4.30;;;4.00;;
74245;SDS011;62601;51.044;13.788;2022-10-15T14:45:55;4.57;;;4.17;;
74245;SDS011;62601;51.044;13.788;2022-10-15T14:48:23;4.87;;;4.10;;
74245;SDS011;62601;51.044;13.788;2022-10-15T14:50:45;4.97;;;4.57;;
74245;SDS011;62601;51.044;13.788;2022-10-15T14:53:06;4.90;;;4.50;;
74245;SDS011;62601;51.044;13.788;2022-10-15T14:55:36;5.80;;;4.40;;
74245;SDS011;62601;51.044;13.788;2022-10-15T14:57:58;5.57;;;4.50;;
74245;SDS011;62601;51.044;13.788;2022-10-15T15:02:50;4.87;;;4.23;;
74245;SDS011;62601;51.044;13.788;2022-10-15T15:07:34;4.90;;;4.40;;
74245;SDS011;62601;51.044;13.788;2022-10-15T15:09:55;5.30;;;4.80;;
74245;SDS011;62601;51.044;13.788;2022-10-15T15:12:18;5.10;;;4.70;;
74245;SDS011;62601;51.044;13.788;2022-10-15T15:14:39;5.60;;;5.10;;
74245;SDS011;62601;51.044;13.788;2022-10-15T15:17:01;5.47;;;4.80;;
74245;SDS011;62601;51.044;13.788;2022-10-15T15:19:22;6.40;;;4.50;;
74245;SDS011;62601;51.044;13.788;2022-10-15T15:21:42;6.23;;;5.63;;
74245;SDS011;62601;51.044;13.788;2022-10-15T15:24:04;6.20;;;5.60;;
74245;SDS011;62601;51.044;13.788;2022-10-15T15:26:26;5.73;;;5.23;;
74245;SDS011;62601;51.044;13.788;2022-10-15T15:28:47;6.27;;;5.67;;
74245;SDS011;62601;51.044;13.788;2022-10-15T15:31:13;5.87;;;5.37;;
74245;SDS011;62601;51.044;13.788;2022-10-15T15:33:36;9.00;;;6.37;;
74245;SDS011;62601;51.044;13.788;2022-10-15T15:36:15;6.33;;;5.73;;
74245;SDS011;62601;51.044;13.788;2022-10-15T15:38:36;6.77;;;6.03;;
74245;SDS011;62601;51.044;13.788;2022-10-15T15:41:10;7.80;;;6.20;;
74245;SDS011;62601;51.044;13.788;2022-10-15T15:43:30;7.73;;;6.03;;
74245;SDS011;62601;51.044;13.788;2022-10-15T15:45:51;7.63;;;6.87;;
74245;SDS011;62601;51.044;13.788;2022-10-15T15:48:11;7.10;;;6.40;;
74245;SDS011;62601;51.044;13.788;2022-10-15T15:50:32;10.53;;;6.00;;
74245;SDS011;62601;51.044;13.788;2022-10-15T15:52:53;7.83;;;7.07;;
74245;SDS011;62601;51.044;13.788;2022-10-15T15:55:13;7.90;;;7.10;;